createdAt,value
2019-05-05T00:00:01.004Z,1008.90
2019-05-05T00:01:01.016Z,1008.87
2019-05-05T00:02:00.981Z,1008.90
2019-05-05T00:03:01.072Z,1008.90
2019-05-05T00:04:00.961Z,1008.88
2019-05-05T00:05:00.973Z,1008.91
2019-05-05T00:06:00.934Z,1008.91
2019-05-05T00:07:00.925Z,1008.94
2019-05-05T00:08:00.952Z,1008.92
2019-05-05T00:09:00.915Z,1008.96
2019-05-05T00:10:00.903Z,1008.93
2019-05-05T00:11:00.885Z,1008.98
2019-05-05T00:12:00.870Z,1009.00
2019-05-05T00:13:00.886Z,1008.99
2019-05-05T00:14:00.850Z,1008.98
2019-05-05T00:15:00.838Z,1009.01
2019-05-05T00:16:00.845Z,1009.00
2019-05-05T00:17:00.862Z,1009.02
2019-05-05T00:18:00.824Z,1009.09
2019-05-05T00:19:00.798Z,1009.07
2019-05-05T00:20:00.800Z,1009.13
2019-05-05T00:21:00.776Z,1009.10
2019-05-05T00:22:00.770Z,1009.11
2019-05-05T00:23:00.790Z,1009.09
2019-05-05T00:24:00.748Z,1009.12
2019-05-05T00:25:00.758Z,1009.12
2019-05-05T00:26:00.750Z,1009.08
2019-05-05T00:27:00.722Z,1009.11
2019-05-05T00:28:00.728Z,1009.12
2019-05-05T00:29:01.339Z,1009.17
2019-05-05T00:30:00.690Z,1009.13
2019-05-05T00:31:00.671Z,1009.11
2019-05-05T00:32:00.664Z,1009.17
2019-05-05T00:33:00.670Z,1009.12
2019-05-05T00:34:00.642Z,1009.13
2019-05-05T00:35:00.628Z,1009.14
2019-05-05T00:36:00.612Z,1009.14
2019-05-05T00:37:00.624Z,1009.14
2019-05-05T00:38:00.712Z,1009.16
2019-05-05T00:39:00.591Z,1009.15
2019-05-05T00:40:00.598Z,1009.16
2019-05-05T00:41:00.558Z,1009.11
2019-05-05T00:42:00.546Z,1009.11
2019-05-05T00:43:00.662Z,1009.15
2019-05-05T00:44:00.540Z,1009.11
2019-05-05T00:45:00.531Z,1009.19
2019-05-05T00:46:00.501Z,1009.14
2019-05-05T00:47:00.494Z,1009.13
2019-05-05T00:48:00.512Z,1009.19
2019-05-05T00:49:00.476Z,1009.23
2019-05-05T00:50:00.465Z,1009.26
2019-05-05T00:51:00.450Z,1009.28
2019-05-05T00:52:00.439Z,1009.24
2019-05-05T00:53:00.433Z,1009.24
2019-05-05T00:54:00.471Z,1009.19
2019-05-05T00:55:00.407Z,1009.22
2019-05-05T00:56:00.407Z,1009.24
2019-05-05T00:57:00.392Z,1009.29
2019-05-05T00:58:00.376Z,1009.28
2019-05-05T00:59:00.381Z,1009.30
2019-05-05T01:00:00.363Z,1009.29
2019-05-05T01:01:00.357Z,1009.28
2019-05-05T01:02:00.339Z,1009.34
2019-05-05T01:03:00.327Z,1009.32
2019-05-05T01:04:00.339Z,1009.36
2019-05-05T01:05:00.297Z,1009.34
2019-05-05T01:06:00.286Z,1009.35
2019-05-05T01:07:00.294Z,1009.36
2019-05-05T01:08:00.284Z,1009.33
2019-05-05T01:09:00.306Z,1009.38
2019-05-05T01:10:00.274Z,1009.36
2019-05-05T01:11:00.237Z,1009.38
2019-05-05T01:12:00.225Z,1009.35
2019-05-05T01:13:00.219Z,1009.39
2019-05-05T01:14:00.222Z,1009.37
2019-05-05T01:15:00.188Z,1009.44
2019-05-05T01:16:00.189Z,1009.40
2019-05-05T01:17:00.190Z,1009.43
2019-05-05T01:18:02.202Z,1009.40
2019-05-05T01:19:00.172Z,1009.43
2019-05-05T01:20:03.786Z,1009.41
2019-05-05T01:21:00.123Z,1009.43
2019-05-05T01:22:00.155Z,1009.46
2019-05-05T01:23:00.110Z,1009.46
2019-05-05T01:24:00.122Z,1009.52
2019-05-05T01:25:00.084Z,1009.48
2019-05-05T01:26:00.076Z,1009.49
2019-05-05T01:27:00.065Z,1009.50
2019-05-05T01:28:00.053Z,1009.52
2019-05-05T01:29:00.074Z,1009.53
2019-05-05T01:30:00.050Z,1009.55
2019-05-05T01:31:00.020Z,1009.58
2019-05-05T01:32:00.017Z,1009.58
2019-05-05T01:33:00.001Z,1009.61
2019-05-05T01:33:59.990Z,1009.57
2019-05-05T01:35:00.015Z,1009.60
2019-05-05T01:35:59.973Z,1009.63
2019-05-05T01:36:59.955Z,1009.68
2019-05-05T01:37:59.954Z,1009.70
2019-05-05T01:38:59.936Z,1009.70
2019-05-05T01:39:59.953Z,1009.74
2019-05-05T01:40:59.920Z,1009.68
2019-05-05T01:41:59.908Z,1009.73
2019-05-05T01:42:59.898Z,1009.72
2019-05-05T01:43:59.898Z,1009.76
2019-05-05T01:44:59.915Z,1009.75
2019-05-05T01:45:59.860Z,1009.77
2019-05-05T01:46:59.858Z,1009.77
2019-05-05T01:47:59.850Z,1009.83
2019-05-05T01:48:59.830Z,1009.88
2019-05-05T01:49:59.841Z,1009.92
2019-05-05T01:50:59.802Z,1009.89
2019-05-05T01:51:59.796Z,1009.95
2019-05-05T01:52:59.789Z,1009.98
2019-05-05T01:53:59.772Z,1010.01
2019-05-05T01:54:59.800Z,1010.07
2019-05-05T01:55:59.760Z,1010.03
2019-05-05T01:56:59.743Z,1010.15
2019-05-05T01:57:59.761Z,1010.11
2019-05-05T01:58:59.726Z,1010.13
2019-05-05T01:59:59.750Z,1010.18
2019-05-05T02:00:59.696Z,1010.13
2019-05-05T02:01:59.686Z,1010.19
2019-05-05T02:02:59.682Z,1010.22
2019-05-05T02:03:59.684Z,1010.24
2019-05-05T02:04:59.683Z,1010.28
2019-05-05T02:05:59.641Z,1010.25
2019-05-05T02:06:59.646Z,1010.23
2019-05-05T02:07:59.634Z,1010.27
2019-05-05T02:08:59.615Z,1010.27
2019-05-05T02:09:59.623Z,1010.27
2019-05-05T02:10:59.609Z,1010.33
2019-05-05T02:11:59.584Z,1010.28
2019-05-05T02:12:59.571Z,1010.32
2019-05-05T02:13:59.572Z,1010.30
2019-05-05T02:14:59.552Z,1010.33
2019-05-05T02:15:59.557Z,1010.34
2019-05-05T02:16:59.531Z,1010.32
2019-05-05T02:17:59.519Z,1010.31
2019-05-05T02:18:59.515Z,1010.32
2019-05-05T02:19:59.495Z,1010.36
2019-05-05T02:20:59.513Z,1010.38
2019-05-05T02:21:59.481Z,1010.35
2019-05-05T02:22:59.465Z,1010.36
2019-05-05T02:23:59.463Z,1010.36
2019-05-05T02:24:59.444Z,1010.37
2019-05-05T02:25:59.456Z,1010.34
2019-05-05T02:26:59.423Z,1010.35
2019-05-05T02:27:59.423Z,1010.34
2019-05-05T02:28:59.401Z,1010.34
2019-05-05T02:29:59.398Z,1010.35
2019-05-05T02:30:59.410Z,1010.33
2019-05-05T02:31:59.387Z,1010.38
2019-05-05T02:32:59.380Z,1010.32
2019-05-05T02:33:59.346Z,1010.38
2019-05-05T02:34:59.337Z,1010.38
2019-05-05T02:35:59.339Z,1010.38
2019-05-05T02:36:59.318Z,1010.45
2019-05-05T02:37:59.310Z,1010.38
2019-05-05T02:38:59.291Z,1010.48
2019-05-05T02:40:06.398Z,1010.45
2019-05-05T02:41:00.292Z,1010.46
2019-05-05T02:41:59.265Z,1010.51
2019-05-05T02:42:59.263Z,1010.48
2019-05-05T02:43:59.239Z,1010.48
2019-05-05T02:44:59.248Z,1010.50
2019-05-05T02:45:59.258Z,1010.52
2019-05-05T02:46:59.210Z,1010.50
2019-05-05T02:47:59.204Z,1010.49
2019-05-05T02:48:59.199Z,1010.60
2019-05-05T02:49:59.192Z,1010.53
2019-05-05T02:51:02.376Z,1010.59
2019-05-05T02:51:59.157Z,1010.60
2019-05-05T02:52:59.145Z,1010.61
2019-05-05T02:53:59.143Z,1010.63
2019-05-05T02:54:59.124Z,1010.71
2019-05-05T02:55:59.123Z,1010.75
2019-05-05T02:56:59.128Z,1010.72
2019-05-05T02:57:59.091Z,1010.73
2019-05-05T02:58:59.088Z,1010.75
2019-05-05T02:59:59.084Z,1010.74
2019-05-05T03:00:59.067Z,1010.75
2019-05-05T03:01:59.074Z,1010.78
2019-05-05T03:02:59.104Z,1010.74
2019-05-05T03:03:59.027Z,1010.79
2019-05-05T03:04:59.016Z,1010.77
2019-05-05T03:05:59.009Z,1010.77
2019-05-05T03:06:59.034Z,1010.78
2019-05-05T03:07:59.005Z,1010.80
2019-05-05T03:08:58.968Z,1010.76
2019-05-05T03:09:58.960Z,1010.83
2019-05-05T03:10:58.953Z,1010.80
2019-05-05T03:11:58.966Z,1010.77
2019-05-05T03:12:58.932Z,1010.81
2019-05-05T03:13:58.940Z,1010.83
2019-05-05T03:14:58.910Z,1010.90
2019-05-05T03:15:58.896Z,1010.87
2019-05-05T03:16:58.916Z,1010.90
2019-05-05T03:17:58.878Z,1010.85
2019-05-05T03:18:58.876Z,1010.84
2019-05-05T03:19:58.852Z,1010.85
2019-05-05T03:21:04.404Z,1010.88
2019-05-05T03:21:59.850Z,1010.97
2019-05-05T03:22:58.826Z,1010.93
2019-05-05T03:23:58.809Z,1010.96
2019-05-05T03:24:58.805Z,1010.96
2019-05-05T03:25:58.788Z,1011.01
2019-05-05T03:26:58.810Z,1011.00
2019-05-05T03:27:58.765Z,1011.04
2019-05-05T03:28:58.770Z,1011.03
2019-05-05T03:29:58.745Z,1011.08
2019-05-05T03:30:58.743Z,1011.09
2019-05-05T03:31:58.759Z,1011.08
2019-05-05T03:32:58.735Z,1011.13
2019-05-05T03:33:58.720Z,1011.06
2019-05-05T03:34:58.695Z,1011.10
2019-05-05T03:35:58.684Z,1011.11
2019-05-05T03:36:58.680Z,1011.14
2019-05-05T03:37:58.687Z,1011.12
2019-05-05T03:38:58.652Z,1011.11
2019-05-05T03:39:58.646Z,1011.13
2019-05-05T03:40:58.628Z,1011.16
2019-05-05T03:41:58.620Z,1011.12
2019-05-05T03:42:58.733Z,1011.16
2019-05-05T03:43:58.599Z,1011.17
2019-05-05T03:44:58.614Z,1011.13
2019-05-05T03:45:58.601Z,1011.19
2019-05-05T03:46:58.584Z,1011.20
2019-05-05T03:47:58.568Z,1011.19
2019-05-05T03:48:58.593Z,1011.20
2019-05-05T03:49:58.534Z,1011.20
2019-05-05T03:50:58.517Z,1011.23
2019-05-05T03:51:58.525Z,1011.17
2019-05-05T03:52:58.523Z,1011.23
2019-05-05T03:53:58.498Z,1011.24
2019-05-05T03:54:58.473Z,1011.26
2019-05-05T03:55:58.465Z,1011.25
2019-05-05T03:56:58.455Z,1011.27
2019-05-05T03:57:58.466Z,1011.27
2019-05-05T03:58:58.441Z,1011.28
2019-05-05T03:59:58.432Z,1011.29
2019-05-05T04:00:58.411Z,1011.36
2019-05-05T04:01:58.407Z,1011.34
2019-05-05T04:02:58.426Z,1011.44
2019-05-05T04:03:58.383Z,1011.42
2019-05-05T04:04:58.395Z,1011.40
2019-05-05T04:05:58.360Z,1011.41
2019-05-05T04:06:58.349Z,1011.42
2019-05-05T04:07:58.365Z,1011.51
2019-05-05T04:08:58.325Z,1011.49
2019-05-05T04:09:58.321Z,1011.48
2019-05-05T04:10:58.310Z,1011.47
2019-05-05T04:11:58.296Z,1011.54
2019-05-05T04:12:58.319Z,1011.50
2019-05-05T04:13:58.273Z,1011.46
2019-05-05T04:14:58.275Z,1011.49
2019-05-05T04:15:58.255Z,1011.49
2019-05-05T04:16:58.255Z,1011.51
2019-05-05T04:17:58.269Z,1011.52
2019-05-05T04:18:58.217Z,1011.48
2019-05-05T04:19:58.209Z,1011.51
2019-05-05T04:20:58.199Z,1011.56
2019-05-05T04:21:58.197Z,1011.53
2019-05-05T04:22:58.449Z,1011.54
2019-05-05T04:23:58.219Z,1011.56
2019-05-05T04:24:58.158Z,1011.58
2019-05-05T04:25:58.146Z,1011.57
2019-05-05T04:26:58.140Z,1011.57
2019-05-05T04:27:58.134Z,1011.61
2019-05-05T04:28:58.139Z,1011.59
2019-05-05T04:29:58.100Z,1011.64
2019-05-05T04:30:58.099Z,1011.62
2019-05-05T04:31:58.084Z,1011.67
2019-05-05T04:32:58.070Z,1011.64
2019-05-05T04:33:58.115Z,1011.71
2019-05-05T04:34:58.051Z,1011.70
2019-05-05T04:35:58.038Z,1011.74
2019-05-05T04:36:58.032Z,1011.75
2019-05-05T04:37:58.036Z,1011.79
2019-05-05T04:38:58.039Z,1011.76
2019-05-05T04:39:58.006Z,1011.78
2019-05-05T04:40:57.986Z,1011.82
2019-05-05T04:41:57.982Z,1011.82
2019-05-05T04:42:57.970Z,1011.80
2019-05-05T04:43:58.094Z,1011.79
2019-05-05T04:44:57.952Z,1011.82
2019-05-05T04:45:57.942Z,1011.77
2019-05-05T04:46:57.922Z,1011.80
2019-05-05T04:47:57.914Z,1011.76
2019-05-05T04:48:57.910Z,1011.78
2019-05-05T04:49:57.934Z,1011.78
2019-05-05T04:50:57.874Z,1011.79
2019-05-05T04:51:57.883Z,1011.82
2019-05-05T04:52:57.856Z,1011.83
2019-05-05T04:53:57.842Z,1011.85
2019-05-05T04:54:57.906Z,1011.84
2019-05-05T04:55:57.824Z,1011.84
2019-05-05T04:56:57.834Z,1011.85
2019-05-05T04:57:57.806Z,1011.84
2019-05-05T04:58:57.794Z,1011.89
2019-05-05T04:59:57.802Z,1011.84
2019-05-05T05:00:57.779Z,1011.85
2019-05-05T05:01:57.760Z,1011.86
2019-05-05T05:02:57.770Z,1011.86
2019-05-05T05:03:57.746Z,1011.84
2019-05-05T05:04:57.746Z,1011.85
2019-05-05T05:05:57.716Z,1011.89
2019-05-05T05:06:57.704Z,1011.87
2019-05-05T05:07:58.186Z,1011.95
2019-05-05T05:08:57.691Z,1011.84
2019-05-05T05:09:57.712Z,1011.93
2019-05-05T05:10:57.660Z,1011.92
2019-05-05T05:11:57.656Z,1011.86
2019-05-05T05:12:57.643Z,1011.85
2019-05-05T05:13:57.635Z,1011.84
2019-05-05T05:14:57.642Z,1011.87
2019-05-05T05:15:57.609Z,1011.85
2019-05-05T05:16:57.610Z,1011.91
2019-05-05T05:17:57.589Z,1011.91
2019-05-05T05:18:57.577Z,1011.91
2019-05-05T05:19:57.585Z,1011.86
2019-05-05T05:20:57.563Z,1011.89
2019-05-05T05:22:01.180Z,1011.86
2019-05-05T05:22:57.534Z,1011.92
2019-05-05T05:23:57.519Z,1011.94
2019-05-05T05:24:57.541Z,1011.87
2019-05-05T05:25:57.512Z,1011.89
2019-05-05T05:26:57.489Z,1011.91
2019-05-05T05:27:57.479Z,1011.94
2019-05-05T05:28:57.467Z,1011.88
2019-05-05T05:29:57.491Z,1011.91
2019-05-05T05:30:57.457Z,1011.90
2019-05-05T05:31:57.483Z,1011.96
2019-05-05T05:32:57.424Z,1011.96
2019-05-05T05:33:57.423Z,1011.96
2019-05-05T05:34:57.430Z,1011.97
2019-05-05T05:35:57.397Z,1011.98
2019-05-05T05:36:57.387Z,1011.94
2019-05-05T05:37:57.797Z,1012.00
2019-05-05T05:38:57.359Z,1012.01
2019-05-05T05:39:57.377Z,1011.96
2019-05-05T05:40:57.349Z,1011.97
2019-05-05T05:41:57.335Z,1011.98
2019-05-05T05:42:57.327Z,1012.02
2019-05-05T05:43:57.307Z,1012.01
2019-05-05T05:44:57.294Z,1012.04
2019-05-05T05:45:57.311Z,1012.04
2019-05-05T05:46:57.278Z,1012.04
2019-05-05T05:47:57.271Z,1012.09
2019-05-05T05:48:57.272Z,1012.11
2019-05-05T05:49:57.245Z,1012.08
2019-05-05T05:50:57.260Z,1012.08
2019-05-05T05:51:57.224Z,1012.15
2019-05-05T05:52:57.213Z,1012.13
2019-05-05T05:53:57.218Z,1012.12
2019-05-05T05:54:57.201Z,1012.15
2019-05-05T05:55:57.396Z,1012.07
2019-05-05T05:56:57.172Z,1012.18
2019-05-05T05:57:57.160Z,1012.18
2019-05-05T05:58:57.146Z,1012.14
2019-05-05T05:59:57.222Z,1012.18
2019-05-05T06:00:57.154Z,1012.17
2019-05-05T06:02:09.003Z,1012.21
2019-05-05T06:02:58.106Z,1012.24
2019-05-05T06:03:57.093Z,1012.26
2019-05-05T06:04:57.082Z,1012.26
2019-05-05T06:05:57.122Z,1012.26
2019-05-05T06:06:57.056Z,1012.22
2019-05-05T06:07:57.053Z,1012.31
2019-05-05T06:08:57.032Z,1012.32
2019-05-05T06:09:57.024Z,1012.35
2019-05-05T06:10:57.034Z,1012.36
2019-05-05T06:11:57.028Z,1012.39
2019-05-05T06:12:56.997Z,1012.34
2019-05-05T06:13:56.985Z,1012.39
2019-05-05T06:14:56.974Z,1012.39
2019-05-05T06:15:56.956Z,1012.42
2019-05-05T06:16:56.971Z,1012.46
2019-05-05T06:17:56.938Z,1012.44
2019-05-05T06:18:56.954Z,1012.48
2019-05-05T06:19:56.933Z,1012.47
2019-05-05T06:20:56.918Z,1012.46
2019-05-05T06:21:56.928Z,1012.53
2019-05-05T06:22:56.889Z,1012.49
2019-05-05T06:24:58.031Z,1012.51
2019-05-05T06:26:17.898Z,1012.55
2019-05-05T06:26:56.839Z,1012.61
2019-05-05T06:27:56.837Z,1012.64
2019-05-05T06:28:56.822Z,1012.63
2019-05-05T06:29:56.805Z,1012.60
2019-05-05T06:30:56.800Z,1012.56
2019-05-05T06:31:56.805Z,1012.56
2019-05-05T06:32:56.775Z,1012.57
2019-05-05T06:33:56.768Z,1012.61
2019-05-05T06:34:56.777Z,1012.65
2019-05-05T06:35:56.745Z,1012.62
2019-05-05T06:36:56.753Z,1012.59
2019-05-05T06:37:56.740Z,1012.60
2019-05-05T06:38:56.715Z,1012.56
2019-05-05T06:39:56.713Z,1012.63
2019-05-05T06:40:56.693Z,1012.60
2019-05-05T06:41:56.737Z,1012.59
2019-05-05T06:42:56.669Z,1012.62
2019-05-05T06:43:56.663Z,1012.61
2019-05-05T06:44:56.651Z,1012.61
2019-05-05T06:45:56.642Z,1012.69
2019-05-05T06:46:56.659Z,1012.67
2019-05-05T06:47:56.625Z,1012.69
2019-05-05T06:48:56.609Z,1012.68
2019-05-05T06:49:56.595Z,1012.72
2019-05-05T06:50:56.592Z,1012.72
2019-05-05T06:51:56.601Z,1012.77
2019-05-05T06:52:56.573Z,1012.77
2019-05-05T06:53:56.551Z,1012.74
2019-05-05T06:54:56.545Z,1012.75
2019-05-05T06:55:56.535Z,1012.78
2019-05-05T06:56:56.533Z,1012.81
2019-05-05T06:57:56.537Z,1012.76
2019-05-05T06:58:56.498Z,1012.77
2019-05-05T06:59:56.488Z,1012.77
2019-05-05T07:00:56.478Z,1012.84
2019-05-05T07:01:56.509Z,1012.82
2019-05-05T07:02:56.463Z,1012.79
2019-05-05T07:03:56.453Z,1012.82
2019-05-05T07:04:56.436Z,1012.77
2019-05-05T07:05:56.424Z,1012.82
2019-05-05T07:06:57.255Z,1012.79
2019-05-05T07:07:56.452Z,1012.69
2019-05-05T07:08:56.400Z,1012.74
2019-05-05T07:09:56.384Z,1012.70
2019-05-05T07:10:56.370Z,1012.77
2019-05-05T07:11:56.381Z,1012.76
2019-05-05T07:12:56.399Z,1012.78
2019-05-05T07:13:56.348Z,1012.75
2019-05-05T07:14:56.326Z,1012.80
2019-05-05T07:15:56.329Z,1012.79
2019-05-05T07:16:56.304Z,1012.77
2019-05-05T07:17:56.335Z,1012.75
2019-05-05T07:18:56.306Z,1012.77
2019-05-05T07:19:56.276Z,1012.81
2019-05-05T07:20:56.260Z,1012.78
2019-05-05T07:21:56.275Z,1012.72
2019-05-05T07:23:02.066Z,1012.69
2019-05-05T07:23:57.240Z,1012.71
2019-05-05T07:24:56.218Z,1012.67
2019-05-05T07:25:56.216Z,1012.73
2019-05-05T07:26:56.198Z,1012.75
2019-05-05T07:27:56.199Z,1012.71
2019-05-05T07:28:56.304Z,1012.76
2019-05-05T07:29:56.168Z,1012.77
2019-05-05T07:30:56.195Z,1012.73
2019-05-05T07:31:56.139Z,1012.75
2019-05-05T07:32:56.201Z,1012.79
2019-05-05T07:33:56.128Z,1012.77
2019-05-05T07:34:56.132Z,1012.72
2019-05-05T07:36:01.418Z,1012.72
2019-05-05T07:36:57.084Z,1012.77
2019-05-05T07:37:56.111Z,1012.74
2019-05-05T07:38:56.071Z,1012.78
2019-05-05T07:39:56.067Z,1012.74
2019-05-05T07:40:56.071Z,1012.74
2019-05-05T07:41:56.039Z,1012.75
2019-05-05T07:42:56.037Z,1012.70
2019-05-05T07:43:56.047Z,1012.69
2019-05-05T07:44:56.006Z,1012.70
2019-05-05T07:45:56.019Z,1012.73
2019-05-05T07:46:55.982Z,1012.75
2019-05-05T07:47:55.988Z,1012.72
2019-05-05T07:48:55.980Z,1012.76
2019-05-05T07:49:55.957Z,1012.77
2019-05-05T07:51:01.978Z,1012.80
2019-05-05T07:51:56.960Z,1012.77
2019-05-05T07:52:55.917Z,1012.74
2019-05-05T07:53:55.918Z,1012.82
2019-05-05T07:54:55.931Z,1012.81
2019-05-05T07:55:55.882Z,1012.75
2019-05-05T07:56:55.878Z,1012.80
2019-05-05T07:57:55.899Z,1012.89
2019-05-05T07:58:55.859Z,1012.89
2019-05-05T07:59:55.846Z,1012.93
2019-05-05T08:00:55.825Z,1012.83
2019-05-05T08:01:55.831Z,1012.85
2019-05-05T08:02:55.813Z,1012.88
2019-05-05T08:03:55.833Z,1012.97
2019-05-05T08:04:55.785Z,1012.95
2019-05-05T08:06:04.908Z,1012.89
2019-05-05T08:06:55.763Z,1012.98
2019-05-05T08:07:55.753Z,1012.94
2019-05-05T08:08:55.777Z,1013.10
2019-05-05T08:09:55.728Z,1013.01
2019-05-05T08:10:55.727Z,1012.99
2019-05-05T08:11:55.723Z,1013.02
2019-05-05T08:12:55.694Z,1013.01
2019-05-05T08:13:55.710Z,1013.00
2019-05-05T08:14:55.700Z,1012.99
2019-05-05T08:15:59.860Z,1012.93
2019-05-05T08:16:55.688Z,1012.97
2019-05-05T08:17:55.668Z,1012.98
2019-05-05T08:18:55.639Z,1012.95
2019-05-05T08:19:55.679Z,1012.96
2019-05-05T08:20:55.608Z,1013.00
2019-05-05T08:21:55.599Z,1012.93
2019-05-05T08:22:55.646Z,1012.94
2019-05-05T08:23:55.577Z,1012.96
2019-05-05T08:24:55.663Z,1012.90
2019-05-05T08:25:55.584Z,1012.89
2019-05-05T08:26:55.553Z,1012.86
2019-05-05T08:27:55.532Z,1012.91
2019-05-05T08:28:55.533Z,1012.93
2019-05-05T08:29:55.551Z,1012.92
2019-05-05T08:30:55.516Z,1012.98
2019-05-05T08:31:55.511Z,1012.99
2019-05-05T08:32:55.474Z,1013.02
2019-05-05T08:33:55.490Z,1012.98
2019-05-05T08:35:00.610Z,1013.04
2019-05-05T08:35:56.446Z,1012.97
2019-05-05T08:36:55.443Z,1013.06
2019-05-05T08:37:55.431Z,1013.07
2019-05-05T08:38:55.412Z,1012.99
2019-05-05T08:39:55.527Z,1013.02
2019-05-05T08:40:55.420Z,1012.98
2019-05-05T08:41:55.386Z,1013.02
2019-05-05T08:42:55.368Z,1013.03
2019-05-05T08:43:55.399Z,1013.00
2019-05-05T08:44:55.358Z,1013.01
2019-05-05T08:45:55.522Z,1013.18
2019-05-05T08:46:55.329Z,1013.19
2019-05-05T08:47:55.318Z,1013.11
2019-05-05T08:48:55.311Z,1013.17
2019-05-05T08:49:55.292Z,1013.17
2019-05-05T08:50:55.297Z,1013.10
2019-05-05T08:51:55.284Z,1013.16
2019-05-05T08:52:55.267Z,1013.18
2019-05-05T08:53:55.251Z,1013.24
2019-05-05T08:54:55.238Z,1013.26
2019-05-05T08:55:55.309Z,1013.17
2019-05-05T08:56:55.228Z,1013.22
2019-05-05T08:57:55.210Z,1013.19
2019-05-05T08:58:55.209Z,1013.21
2019-05-05T08:59:55.180Z,1013.19
2019-05-05T09:00:55.201Z,1013.18
2019-05-05T09:01:55.168Z,1013.18
2019-05-05T09:02:55.156Z,1013.24
2019-05-05T09:03:55.164Z,1013.14
2019-05-05T09:04:55.150Z,1013.12
2019-05-05T09:05:55.166Z,1013.08
2019-05-05T09:06:55.125Z,1013.06
2019-05-05T09:07:55.104Z,1013.03
2019-05-05T09:08:55.087Z,1013.04
2019-05-05T09:09:55.071Z,1013.08
2019-05-05T09:10:55.362Z,1013.16
2019-05-05T09:11:55.089Z,1013.19
2019-05-05T09:12:55.043Z,1013.22
2019-05-05T09:13:55.037Z,1013.15
2019-05-05T09:14:55.021Z,1013.19
2019-05-05T09:15:55.024Z,1013.20
2019-05-05T09:16:55.024Z,1013.27
2019-05-05T09:17:54.991Z,1013.30
2019-05-05T09:18:54.977Z,1013.20
2019-05-05T09:19:54.968Z,1013.15
2019-05-05T09:20:54.959Z,1013.23
2019-05-05T09:21:54.963Z,1013.18
2019-05-05T09:22:57.389Z,1013.16
2019-05-05T09:23:59.894Z,1013.18
2019-05-05T09:24:55.914Z,1013.14
2019-05-05T09:25:54.893Z,1013.14
2019-05-05T09:26:54.933Z,1013.12
2019-05-05T09:27:54.891Z,1013.16
2019-05-05T09:28:54.869Z,1013.09
2019-05-05T09:29:54.865Z,1013.23
2019-05-05T09:30:54.852Z,1013.12
2019-05-05T09:31:54.864Z,1013.16
2019-05-05T09:32:54.880Z,1013.15
2019-05-05T09:33:54.815Z,1013.11
2019-05-05T09:34:54.821Z,1013.16
2019-05-05T09:35:54.880Z,1013.12
2019-05-05T09:36:54.856Z,1013.17
2019-05-05T09:37:54.801Z,1013.25
2019-05-05T09:38:54.763Z,1013.21
2019-05-05T09:39:54.757Z,1013.15
2019-05-05T09:40:54.730Z,1013.24
2019-05-05T09:41:54.734Z,1013.28
2019-05-05T09:42:54.732Z,1013.31
2019-05-05T09:43:54.702Z,1013.30
2019-05-05T09:44:54.687Z,1013.28
2019-05-05T09:45:54.767Z,1013.27
2019-05-05T09:46:54.674Z,1013.31
2019-05-05T09:47:54.677Z,1013.29
2019-05-05T09:48:54.659Z,1013.26
2019-05-05T09:49:55.041Z,1013.29
2019-05-05T09:50:54.622Z,1013.25
2019-05-05T09:51:54.636Z,1013.19
2019-05-05T09:52:54.636Z,1013.25
2019-05-05T09:53:54.646Z,1013.27
2019-05-05T09:54:54.592Z,1013.25
2019-05-05T09:55:54.790Z,1013.26
2019-05-05T09:56:54.570Z,1013.27
2019-05-05T09:57:54.580Z,1013.30
2019-05-05T09:58:54.574Z,1013.31
2019-05-05T09:59:54.524Z,1013.29
2019-05-05T10:00:54.801Z,1013.31
2019-05-05T10:01:54.504Z,1013.30
2019-05-05T10:02:54.539Z,1013.29
2019-05-05T10:03:54.487Z,1013.35
2019-05-05T10:04:54.778Z,1013.26
2019-05-05T10:05:54.464Z,1013.28
2019-05-05T10:06:54.453Z,1013.26
2019-05-05T10:07:54.558Z,1013.37
2019-05-05T10:08:54.436Z,1013.35
2019-05-05T10:09:54.448Z,1013.39
2019-05-05T10:10:54.799Z,1013.40
2019-05-05T10:11:54.396Z,1013.35
2019-05-05T10:12:55.015Z,1013.38
2019-05-05T10:13:54.679Z,1013.40
2019-05-05T10:14:54.375Z,1013.32
2019-05-05T10:15:54.921Z,1013.35
2019-05-05T10:16:54.347Z,1013.34
2019-05-05T10:17:54.334Z,1013.37
2019-05-05T10:18:54.340Z,1013.42
2019-05-05T10:19:54.709Z,1013.42
2019-05-05T10:20:54.916Z,1013.38
2019-05-05T10:21:54.316Z,1013.39
2019-05-05T10:22:54.390Z,1013.39
2019-05-05T10:23:54.306Z,1013.40
2019-05-05T10:24:57.236Z,1013.39
2019-05-05T10:25:54.254Z,1013.38
2019-05-05T10:26:54.404Z,1013.38
2019-05-05T10:27:54.230Z,1013.32
2019-05-05T10:28:54.230Z,1013.34
2019-05-05T10:29:54.833Z,1013.33
2019-05-05T10:30:54.188Z,1013.36
2019-05-05T10:31:54.179Z,1013.34
2019-05-05T10:32:54.648Z,1013.40
2019-05-05T10:33:54.189Z,1013.39
2019-05-05T10:34:54.148Z,1013.40
2019-05-05T10:35:54.268Z,1013.42
2019-05-05T10:36:54.151Z,1013.40
2019-05-05T10:37:54.546Z,1013.48
2019-05-05T10:38:54.129Z,1013.41
2019-05-05T10:39:54.438Z,1013.44
2019-05-05T10:40:54.209Z,1013.44
2019-05-05T10:41:56.151Z,1013.48
2019-05-05T10:42:54.229Z,1013.42
2019-05-05T10:43:54.273Z,1013.43
2019-05-05T10:44:54.061Z,1013.46
2019-05-05T10:45:54.636Z,1013.40
2019-05-05T10:46:54.058Z,1013.38
2019-05-05T10:47:54.003Z,1013.37
2019-05-05T10:48:53.996Z,1013.40
2019-05-05T10:49:54.490Z,1013.41
2019-05-05T10:50:53.973Z,1013.42
2019-05-05T10:51:54.449Z,1013.37
2019-05-05T10:52:53.946Z,1013.38
2019-05-05T10:53:54.521Z,1013.37
2019-05-05T10:54:54.807Z,1013.27
2019-05-05T10:55:54.043Z,1013.26
2019-05-05T10:56:53.915Z,1013.23
2019-05-05T10:57:54.421Z,1013.24
2019-05-05T10:58:54.557Z,1013.24
2019-05-05T10:59:54.058Z,1013.25
2019-05-05T11:00:54.486Z,1013.17
2019-05-05T11:01:53.953Z,1013.13
2019-05-05T11:02:53.854Z,1013.09
2019-05-05T11:03:53.831Z,1013.14
2019-05-05T11:04:54.619Z,1013.10
2019-05-05T11:05:53.976Z,1013.06
2019-05-05T11:06:54.614Z,1013.16
2019-05-05T11:07:53.822Z,1013.43
2019-05-05T11:08:54.093Z,1013.36
2019-05-05T11:09:53.759Z,1013.25
2019-05-05T11:10:53.771Z,1013.24
2019-05-05T11:11:53.746Z,1013.32
2019-05-05T11:12:53.736Z,1013.30
2019-05-05T11:13:54.208Z,1013.35
2019-05-05T11:14:54.500Z,1013.35
2019-05-05T11:15:54.737Z,1013.29
2019-05-05T11:16:54.673Z,1013.31
2019-05-05T11:17:54.240Z,1013.33
2019-05-05T11:18:54.144Z,1013.36
2019-05-05T11:19:53.655Z,1013.32
2019-05-05T11:20:54.878Z,1013.35
2019-05-05T11:21:54.077Z,1013.31
2019-05-05T11:22:54.206Z,1013.35
2019-05-05T11:23:54.006Z,1013.33
2019-05-05T11:24:58.322Z,1013.27
2019-05-05T11:25:54.668Z,1013.39
2019-05-05T11:26:54.054Z,1013.35
2019-05-05T11:27:54.129Z,1013.68
2019-05-05T11:28:53.912Z,1013.60
2019-05-05T11:29:54.143Z,1013.48
2019-05-05T11:30:53.793Z,1013.49
2019-05-05T11:31:53.521Z,1013.50
2019-05-05T11:32:53.532Z,1013.54
2019-05-05T11:33:54.227Z,1013.47
2019-05-05T11:34:53.564Z,1013.46
2019-05-05T11:35:54.004Z,1013.50
2019-05-05T11:36:54.408Z,1013.73
2019-05-05T11:37:54.268Z,1013.75
2019-05-05T11:38:53.763Z,1013.62
2019-05-05T11:39:53.709Z,1013.83
2019-05-05T11:40:54.720Z,1013.81
2019-05-05T11:41:54.784Z,1013.74
2019-05-05T11:42:54.112Z,1013.84
2019-05-05T11:43:53.558Z,1013.77
2019-05-05T11:44:53.416Z,1013.63
2019-05-05T11:45:54.475Z,1013.62
2019-05-05T11:46:54.688Z,1013.56
2019-05-05T11:47:53.702Z,1013.60
2019-05-05T11:48:54.408Z,1013.55
2019-05-05T11:49:56.174Z,1013.51
2019-05-05T11:50:53.981Z,1013.48
2019-05-05T11:51:54.253Z,1013.52
2019-05-05T11:52:54.479Z,1013.54
2019-05-05T11:53:54.023Z,1013.43
2019-05-05T11:54:54.380Z,1013.48
2019-05-05T11:55:55.136Z,1013.61
2019-05-05T11:56:53.932Z,1013.52
2019-05-05T11:57:54.502Z,1013.57
2019-05-05T11:58:54.636Z,1013.58
2019-05-05T11:59:54.031Z,1013.58
2019-05-05T12:00:54.522Z,1013.55
2019-05-05T12:01:55.040Z,1013.56
2019-05-05T12:02:54.385Z,1013.64
2019-05-05T12:03:53.637Z,1013.62
2019-05-05T12:04:54.074Z,1013.63
2019-05-05T12:05:53.166Z,1013.66